sensor_id;sensor_type;location;lat;lon;timestamp;P1;durP1;ratioP1;P2;durP2;ratioP2
21519;SDS011;10921;53.614;9.882;2022-09-12T00:01:08;24.77;;;22.88;;
21519;SDS011;10921;53.614;9.882;2022-09-12T00:03:42;25.08;;;23.08;;
21519;SDS011;10921;53.614;9.882;2022-09-12T00:06:14;27.00;;;24.75;;
21519;SDS011;10921;53.614;9.882;2022-09-12T00:08:48;28.33;;;25.90;;
21519;SDS011;10921;53.614;9.882;2022-09-12T00:11:14;27.80;;;25.55;;
21519;SDS011;10921;53.614;9.882;2022-09-12T00:13:41;27.48;;;25.27;;
21519;SDS011;10921;53.614;9.882;2022-09-12T00:16:21;26.75;;;24.65;;
21519;SDS011;10921;53.614;9.882;2022-09-12T00:18:50;26.73;;;24.63;;
21519;SDS011;10921;53.614;9.882;2022-09-12T00:21:19;27.38;;;25.27;;
21519;SDS011;10921;53.614;9.882;2022-09-12T00:23:47;27.58;;;25.38;;
21519;SDS011;10921;53.614;9.882;2022-09-12T00:26:14;28.00;;;25.70;;
21519;SDS011;10921;53.614;9.882;2022-09-12T00:28:42;29.20;;;26.50;;
21519;SDS011;10921;53.614;9.882;2022-09-12T00:31:10;29.02;;;26.65;;
21519;SDS011;10921;53.614;9.882;2022-09-12T00:33:39;28.13;;;25.92;;
21519;SDS011;10921;53.614;9.882;2022-09-12T00:36:08;28.70;;;26.23;;
21519;SDS011;10921;53.614;9.882;2022-09-12T00:38:37;27.42;;;25.33;;
21519;SDS011;10921;53.614;9.882;2022-09-12T00:41:10;27.80;;;25.50;;
21519;SDS011;10921;53.614;9.882;2022-09-12T00:43:44;27.92;;;25.42;;
21519;SDS011;10921;53.614;9.882;2022-09-12T00:52:38;28.10;;;26.00;;
21519;SDS011;10921;53.614;9.882;2022-09-12T00:55:11;27.67;;;25.48;;
21519;SDS011;10921;53.614;9.882;2022-09-12T00:57:49;27.70;;;25.50;;
21519;SDS011;10921;53.614;9.882;2022-09-12T01:00:20;28.52;;;26.35;;
21519;SDS011;10921;53.614;9.882;2022-09-12T01:02:49;28.92;;;26.65;;
21519;SDS011;10921;53.614;9.882;2022-09-12T01:05:22;28.52;;;26.17;;
21519;SDS011;10921;53.614;9.882;2022-09-12T01:07:50;30.20;;;27.70;;
21519;SDS011;10921;53.614;9.882;2022-09-12T01:10:18;29.58;;;27.27;;
21519;SDS011;10921;53.614;9.882;2022-09-12T01:12:44;29.80;;;27.48;;
21519;SDS011;10921;53.614;9.882;2022-09-12T01:15:11;29.92;;;27.42;;
21519;SDS011;10921;53.614;9.882;2022-09-12T01:17:50;28.58;;;26.38;;
21519;SDS011;10921;53.614;9.882;2022-09-12T01:20:40;29.02;;;26.42;;
21519;SDS011;10921;53.614;9.882;2022-09-12T01:26:02;27.92;;;25.83;;
21519;SDS011;10921;53.614;9.882;2022-09-12T01:32:07;28.42;;;26.23;;
21519;SDS011;10921;53.614;9.882;2022-09-12T01:39:42;29.33;;;26.92;;
21519;SDS011;10921;53.614;9.882;2022-09-12T01:44:56;27.42;;;25.42;;
21519;SDS011;10921;53.614;9.882;2022-09-12T01:47:48;28.33;;;26.13;;
21519;SDS011;10921;53.614;9.882;2022-09-12T01:50:23;29.52;;;26.90;;
21519;SDS011;10921;53.614;9.882;2022-09-12T01:52:55;29.63;;;27.33;;
21519;SDS011;10921;53.614;9.882;2022-09-12T01:55:35;29.58;;;27.17;;
21519;SDS011;10921;53.614;9.882;2022-09-12T02:01:03;29.13;;;26.83;;
21519;SDS011;10921;53.614;9.882;2022-09-12T02:03:46;30.25;;;27.63;;
21519;SDS011;10921;53.614;9.882;2022-09-12T02:06:18;29.95;;;27.45;;
21519;SDS011;10921;53.614;9.882;2022-09-12T02:08:52;28.55;;;26.35;;
21519;SDS011;10921;53.614;9.882;2022-09-12T02:11:23;28.95;;;26.60;;
21519;SDS011;10921;53.614;9.882;2022-09-12T02:13:55;29.35;;;26.98;;
21519;SDS011;10921;53.614;9.882;2022-09-12T02:19:15;30.02;;;27.63;;
21519;SDS011;10921;53.614;9.882;2022-09-12T02:21:46;29.40;;;27.00;;
21519;SDS011;10921;53.614;9.882;2022-09-12T02:24:18;29.27;;;26.88;;
21519;SDS011;10921;53.614;9.882;2022-09-12T02:26:59;28.45;;;26.27;;
21519;SDS011;10921;53.614;9.882;2022-09-12T02:29:30;29.92;;;27.63;;
21519;SDS011;10921;53.614;9.882;2022-09-12T02:31:57;29.33;;;26.83;;
21519;SDS011;10921;53.614;9.882;2022-09-12T02:40:04;29.42;;;27.13;;
21519;SDS011;10921;53.614;9.882;2022-09-12T02:42:34;30.03;;;27.77;;
21519;SDS011;10921;53.614;9.882;2022-09-12T02:45:02;31.20;;;28.55;;
21519;SDS011;10921;53.614;9.882;2022-09-12T02:47:46;31.40;;;28.80;;
21519;SDS011;10921;53.614;9.882;2022-09-12T02:50:17;29.73;;;27.33;;
21519;SDS011;10921;53.614;9.882;2022-09-12T02:52:44;30.88;;;28.27;;
21519;SDS011;10921;53.614;9.882;2022-09-12T02:55:11;30.95;;;28.15;;
21519;SDS011;10921;53.614;9.882;2022-09-12T02:57:39;31.33;;;28.75;;
21519;SDS011;10921;53.614;9.882;2022-09-12T03:00:06;31.58;;;28.92;;
21519;SDS011;10921;53.614;9.882;2022-09-12T03:02:37;32.15;;;29.45;;
21519;SDS011;10921;53.614;9.882;2022-09-12T03:05:48;31.05;;;28.55;;
21519;SDS011;10921;53.614;9.882;2022-09-12T03:17:51;31.65;;;29.25;;
21519;SDS011;10921;53.614;9.882;2022-09-12T03:20:10;31.88;;;29.38;;
21519;SDS011;10921;53.614;9.882;2022-09-12T03:22:42;30.65;;;28.25;;
21519;SDS011;10921;53.614;9.882;2022-09-12T03:25:23;30.83;;;28.20;;
21519;SDS011;10921;53.614;9.882;2022-09-12T03:30:35;31.33;;;28.83;;
21519;SDS011;10921;53.614;9.882;2022-09-12T03:33:09;30.88;;;28.50;;
21519;SDS011;10921;53.614;9.882;2022-09-12T03:35:36;30.52;;;27.92;;
21519;SDS011;10921;53.614;9.882;2022-09-12T03:38:03;30.52;;;28.15;;
21519;SDS011;10921;53.614;9.882;2022-09-12T03:40:30;30.98;;;28.58;;
21519;SDS011;10921;53.614;9.882;2022-09-12T03:42:56;30.98;;;28.35;;
21519;SDS011;10921;53.614;9.882;2022-09-12T03:45:23;30.52;;;28.23;;
21519;SDS011;10921;53.614;9.882;2022-09-12T03:47:50;30.25;;;27.73;;
21519;SDS011;10921;53.614;9.882;2022-09-12T03:50:16;30.30;;;27.90;;
21519;SDS011;10921;53.614;9.882;2022-09-12T03:52:43;31.42;;;28.73;;
21519;SDS011;10921;53.614;9.882;2022-09-12T03:55:09;31.70;;;28.67;;
21519;SDS011;10921;53.614;9.882;2022-09-12T03:57:36;30.77;;;28.42;;
21519;SDS011;10921;53.614;9.882;2022-09-12T04:00:03;31.17;;;28.58;;
21519;SDS011;10921;53.614;9.882;2022-09-12T04:02:31;31.52;;;29.00;;
21519;SDS011;10921;53.614;9.882;2022-09-12T04:04:57;31.30;;;28.83;;
21519;SDS011;10921;53.614;9.882;2022-09-12T04:07:24;31.58;;;29.10;;
21519;SDS011;10921;53.614;9.882;2022-09-12T04:09:50;32.42;;;29.67;;
21519;SDS011;10921;53.614;9.882;2022-09-12T04:12:18;31.52;;;29.13;;
21519;SDS011;10921;53.614;9.882;2022-09-12T04:14:45;31.15;;;28.55;;
21519;SDS011;10921;53.614;9.882;2022-09-12T04:17:11;31.58;;;29.08;;
21519;SDS011;10921;53.614;9.882;2022-09-12T04:19:38;31.75;;;29.25;;
21519;SDS011;10921;53.614;9.882;2022-09-12T04:22:04;31.70;;;28.95;;
21519;SDS011;10921;53.614;9.882;2022-09-12T04:24:31;31.30;;;28.70;;
21519;SDS011;10921;53.614;9.882;2022-09-12T04:26:57;31.75;;;29.15;;
21519;SDS011;10921;53.614;9.882;2022-09-12T04:29:24;30.75;;;28.17;;
21519;SDS011;10921;53.614;9.882;2022-09-12T04:31:50;30.88;;;28.50;;
21519;SDS011;10921;53.614;9.882;2022-09-12T04:34:17;31.00;;;28.63;;
21519;SDS011;10921;53.614;9.882;2022-09-12T04:36:43;30.70;;;28.23;;
21519;SDS011;10921;53.614;9.882;2022-09-12T04:39:10;30.17;;;27.80;;
21519;SDS011;10921;53.614;9.882;2022-09-12T04:41:37;31.10;;;28.45;;
21519;SDS011;10921;53.614;9.882;2022-09-12T04:44:07;30.58;;;27.92;;
21519;SDS011;10921;53.614;9.882;2022-09-12T04:46:38;30.55;;;28.15;;
21519;SDS011;10921;53.614;9.882;2022-09-12T04:49:07;29.73;;;27.33;;
21519;SDS011;10921;53.614;9.882;2022-09-12T04:51:35;30.77;;;28.27;;
21519;SDS011;10921;53.614;9.882;2022-09-12T04:54:04;30.05;;;27.75;;
21519;SDS011;10921;53.614;9.882;2022-09-12T04:56:35;31.10;;;28.48;;
21519;SDS011;10921;53.614;9.882;2022-09-12T04:59:04;30.83;;;28.10;;
21519;SDS011;10921;53.614;9.882;2022-09-12T05:01:30;31.13;;;28.52;;
21519;SDS011;10921;53.614;9.882;2022-09-12T05:03:57;31.45;;;28.85;;
21519;SDS011;10921;53.614;9.882;2022-09-12T05:06:29;32.78;;;29.73;;
21519;SDS011;10921;53.614;9.882;2022-09-12T05:08:58;31.23;;;28.42;;
21519;SDS011;10921;53.614;9.882;2022-09-12T05:11:26;31.67;;;29.08;;
21519;SDS011;10921;53.614;9.882;2022-09-12T05:14:14;31.60;;;28.85;;
21519;SDS011;10921;53.614;9.882;2022-09-12T05:16:41;30.10;;;27.60;;
21519;SDS011;10921;53.614;9.882;2022-09-12T05:19:14;31.35;;;28.73;;
21519;SDS011;10921;53.614;9.882;2022-09-12T05:21:40;32.28;;;29.60;;
21519;SDS011;10921;53.614;9.882;2022-09-12T05:24:08;32.10;;;29.35;;
21519;SDS011;10921;53.614;9.882;2022-09-12T05:26:36;32.25;;;29.52;;
21519;SDS011;10921;53.614;9.882;2022-09-12T05:29:03;32.03;;;29.23;;
21519;SDS011;10921;53.614;9.882;2022-09-12T05:31:30;31.80;;;29.13;;
21519;SDS011;10921;53.614;9.882;2022-09-12T05:33:57;32.47;;;29.85;;
21519;SDS011;10921;53.614;9.882;2022-09-12T05:36:24;31.67;;;29.08;;
21519;SDS011;10921;53.614;9.882;2022-09-12T05:38:55;33.03;;;30.13;;
21519;SDS011;10921;53.614;9.882;2022-09-12T05:41:25;33.13;;;30.25;;
21519;SDS011;10921;53.614;9.882;2022-09-12T05:43:56;32.15;;;29.35;;
21519;SDS011;10921;53.614;9.882;2022-09-12T05:46:25;33.08;;;30.13;;
21519;SDS011;10921;53.614;9.882;2022-09-12T05:48:53;33.25;;;30.15;;
21519;SDS011;10921;53.614;9.882;2022-09-12T05:51:26;33.55;;;30.48;;
21519;SDS011;10921;53.614;9.882;2022-09-12T05:53:54;32.78;;;30.02;;
21519;SDS011;10921;53.614;9.882;2022-09-12T05:56:24;33.80;;;31.00;;
21519;SDS011;10921;53.614;9.882;2022-09-12T05:59:02;34.50;;;31.52;;
21519;SDS011;10921;53.614;9.882;2022-09-12T06:01:31;37.22;;;33.88;;
21519;SDS011;10921;53.614;9.882;2022-09-12T06:03:59;37.72;;;34.47;;
21519;SDS011;10921;53.614;9.882;2022-09-12T06:06:29;36.58;;;33.38;;
21519;SDS011;10921;53.614;9.882;2022-09-12T06:08:58;39.53;;;35.72;;
21519;SDS011;10921;53.614;9.882;2022-09-12T06:11:27;39.75;;;36.13;;
21519;SDS011;10921;53.614;9.882;2022-09-12T06:13:55;43.88;;;39.08;;
21519;SDS011;10921;53.614;9.882;2022-09-12T06:16:24;45.70;;;41.10;;
21519;SDS011;10921;53.614;9.882;2022-09-12T06:18:53;43.20;;;38.88;;
21519;SDS011;10921;53.614;9.882;2022-09-12T06:21:22;43.28;;;39.15;;
21519;SDS011;10921;53.614;9.882;2022-09-12T06:23:49;46.33;;;41.67;;
21519;SDS011;10921;53.614;9.882;2022-09-12T06:26:16;52.25;;;44.50;;
21519;SDS011;10921;53.614;9.882;2022-09-12T06:31:17;49.15;;;43.35;;
21519;SDS011;10921;53.614;9.882;2022-09-12T06:33:47;53.72;;;46.53;;
21519;SDS011;10921;53.614;9.882;2022-09-12T06:36:18;56.55;;;48.65;;
21519;SDS011;10921;53.614;9.882;2022-09-12T06:38:47;64.80;;;52.47;;
21519;SDS011;10921;53.614;9.882;2022-09-12T06:41:18;58.90;;;52.35;;
21519;SDS011;10921;53.614;9.882;2022-09-12T06:43:44;64.95;;;54.28;;
21519;SDS011;10921;53.614;9.882;2022-09-12T06:46:11;65.03;;;54.25;;
21519;SDS011;10921;53.614;9.882;2022-09-12T06:48:38;64.50;;;55.47;;
21519;SDS011;10921;53.614;9.882;2022-09-12T06:51:13;63.22;;;55.85;;
21519;SDS011;10921;53.614;9.882;2022-09-12T06:53:41;62.25;;;55.47;;
21519;SDS011;10921;53.614;9.882;2022-09-12T06:56:11;61.53;;;54.38;;
21519;SDS011;10921;53.614;9.882;2022-09-12T06:58:45;60.55;;;53.58;;
21519;SDS011;10921;53.614;9.882;2022-09-12T07:01:14;59.50;;;53.22;;
21519;SDS011;10921;53.614;9.882;2022-09-12T07:03:47;59.97;;;52.80;;
21519;SDS011;10921;53.614;9.882;2022-09-12T07:06:19;61.55;;;53.03;;
21519;SDS011;10921;53.614;9.882;2022-09-12T07:08:47;59.00;;;52.58;;
21519;SDS011;10921;53.614;9.882;2022-09-12T07:13:46;56.97;;;50.95;;
21519;SDS011;10921;53.614;9.882;2022-09-12T07:16:14;53.50;;;48.17;;
21519;SDS011;10921;53.614;9.882;2022-09-12T07:18:49;52.70;;;47.28;;
21519;SDS011;10921;53.614;9.882;2022-09-12T07:21:17;51.92;;;46.25;;
21519;SDS011;10921;53.614;9.882;2022-09-12T07:23:43;49.35;;;44.20;;
21519;SDS011;10921;53.614;9.882;2022-09-12T07:26:11;44.97;;;40.47;;
21519;SDS011;10921;53.614;9.882;2022-09-12T07:28:39;44.67;;;40.45;;
21519;SDS011;10921;53.614;9.882;2022-09-12T07:33:34;41.80;;;37.38;;
21519;SDS011;10921;53.614;9.882;2022-09-12T07:36:02;36.50;;;33.05;;
21519;SDS011;10921;53.614;9.882;2022-09-12T07:38:30;38.47;;;34.10;;
21519;SDS011;10921;53.614;9.882;2022-09-12T07:40:57;37.40;;;33.58;;
21519;SDS011;10921;53.614;9.882;2022-09-12T07:43:24;39.58;;;35.30;;
21519;SDS011;10921;53.614;9.882;2022-09-12T07:45:54;37.65;;;33.80;;
21519;SDS011;10921;53.614;9.882;2022-09-12T07:48:21;36.88;;;32.90;;
21519;SDS011;10921;53.614;9.882;2022-09-12T07:50:56;35.60;;;31.98;;
21519;SDS011;10921;53.614;9.882;2022-09-12T07:53:29;37.65;;;29.15;;
21519;SDS011;10921;53.614;9.882;2022-09-12T07:55:58;29.88;;;26.80;;
21519;SDS011;10921;53.614;9.882;2022-09-12T07:58:24;30.85;;;27.75;;
21519;SDS011;10921;53.614;9.882;2022-09-12T08:00:51;26.27;;;23.77;;
21519;SDS011;10921;53.614;9.882;2022-09-12T08:03:18;26.17;;;23.50;;
21519;SDS011;10921;53.614;9.882;2022-09-12T08:05:45;26.20;;;23.70;;
21519;SDS011;10921;53.614;9.882;2022-09-12T08:08:11;25.55;;;22.92;;
21519;SDS011;10921;53.614;9.882;2022-09-12T08:10:38;26.08;;;23.30;;
21519;SDS011;10921;53.614;9.882;2022-09-12T08:13:04;22.25;;;20.00;;
21519;SDS011;10921;53.614;9.882;2022-09-12T08:15:35;22.85;;;20.75;;
21519;SDS011;10921;53.614;9.882;2022-09-12T08:18:01;20.27;;;18.30;;
21519;SDS011;10921;53.614;9.882;2022-09-12T08:20:28;20.27;;;18.27;;
21519;SDS011;10921;53.614;9.882;2022-09-12T08:22:55;21.98;;;18.13;;
21519;SDS011;10921;53.614;9.882;2022-09-12T08:25:21;19.42;;;17.48;;
21519;SDS011;10921;53.614;9.882;2022-09-12T08:27:48;21.23;;;16.60;;
21519;SDS011;10921;53.614;9.882;2022-09-12T08:30:15;17.35;;;15.85;;
21519;SDS011;10921;53.614;9.882;2022-09-12T08:32:41;17.45;;;16.00;;
21519;SDS011;10921;53.614;9.882;2022-09-12T08:35:08;15.88;;;14.38;;
21519;SDS011;10921;53.614;9.882;2022-09-12T08:37:34;15.48;;;14.18;;
21519;SDS011;10921;53.614;9.882;2022-09-12T08:40:01;15.60;;;14.18;;
21519;SDS011;10921;53.614;9.882;2022-09-12T08:42:48;14.18;;;13.07;;
21519;SDS011;10921;53.614;9.882;2022-09-12T08:45:44;14.52;;;13.23;;
21519;SDS011;10921;53.614;9.882;2022-09-12T08:50:46;14.00;;;12.80;;
21519;SDS011;10921;53.614;9.882;2022-09-12T08:53:16;13.25;;;12.10;;
21519;SDS011;10921;53.614;9.882;2022-09-12T08:55:51;13.15;;;11.95;;
21519;SDS011;10921;53.614;9.882;2022-09-12T08:58:21;12.90;;;11.80;;
21519;SDS011;10921;53.614;9.882;2022-09-12T09:11:52;12.18;;;11.18;;
21519;SDS011;10921;53.614;9.882;2022-09-12T09:14:30;13.98;;;11.07;;
21519;SDS011;10921;53.614;9.882;2022-09-12T09:17:22;11.45;;;10.40;;
21519;SDS011;10921;53.614;9.882;2022-09-12T09:19:54;11.32;;;10.63;;
21519;SDS011;10921;53.614;9.882;2022-09-12T09:22:31;11.45;;;10.52;;
21519;SDS011;10921;53.614;9.882;2022-09-12T09:25:05;10.80;;;10.10;;
21519;SDS011;10921;53.614;9.882;2022-09-12T09:27:47;11.25;;;10.30;;
21519;SDS011;10921;53.614;9.882;2022-09-12T09:30:34;11.95;;;10.93;;
21519;SDS011;10921;53.614;9.882;2022-09-12T09:33:02;13.43;;;12.07;;
21519;SDS011;10921;53.614;9.882;2022-09-12T09:38:23;12.90;;;11.80;;
21519;SDS011;10921;53.614;9.882;2022-09-12T09:41:02;12.52;;;11.43;;
21519;SDS011;10921;53.614;9.882;2022-09-12T09:43:33;12.43;;;11.43;;
21519;SDS011;10921;53.614;9.882;2022-09-12T09:46:02;12.15;;;11.20;;
21519;SDS011;10921;53.614;9.882;2022-09-12T09:48:30;11.90;;;10.90;;
21519;SDS011;10921;53.614;9.882;2022-09-12T09:50:59;11.80;;;10.60;;
21519;SDS011;10921;53.614;9.882;2022-09-12T09:54:02;11.25;;;10.25;;
21519;SDS011;10921;53.614;9.882;2022-09-12T09:58:53;10.40;;;9.50;;
21519;SDS011;10921;53.614;9.882;2022-09-12T10:01:19;12.85;;;10.50;;
21519;SDS011;10921;53.614;9.882;2022-09-12T10:03:47;11.40;;;9.95;;
21519;SDS011;10921;53.614;9.882;2022-09-12T10:08:46;10.38;;;9.55;;
21519;SDS011;10921;53.614;9.882;2022-09-12T10:16:29;9.80;;;8.98;;
21519;SDS011;10921;53.614;9.882;2022-09-12T10:19:00;10.23;;;9.43;;
21519;SDS011;10921;53.614;9.882;2022-09-12T10:21:44;10.10;;;9.30;;
21519;SDS011;10921;53.614;9.882;2022-09-12T10:26:52;10.35;;;9.50;;
21519;SDS011;10921;53.614;9.882;2022-09-12T10:29:26;9.50;;;8.70;;
21519;SDS011;10921;53.614;9.882;2022-09-12T10:31:57;9.57;;;8.68;;
21519;SDS011;10921;53.614;9.882;2022-09-12T10:34:33;9.65;;;8.85;;
21519;SDS011;10921;53.614;9.882;2022-09-12T10:37:24;9.50;;;8.80;;
21519;SDS011;10921;53.614;9.882;2022-09-12T10:39:57;9.75;;;9.00;;
21519;SDS011;10921;53.614;9.882;2022-09-12T10:45:22;9.98;;;9.27;;
21519;SDS011;10921;53.614;9.882;2022-09-12T10:48:24;9.23;;;8.63;;
21519;SDS011;10921;53.614;9.882;2022-09-12T10:50:52;9.68;;;8.88;;
21519;SDS011;10921;53.614;9.882;2022-09-12T10:53:23;9.40;;;8.63;;
21519;SDS011;10921;53.614;9.882;2022-09-12T10:58:41;9.13;;;8.55;;
21519;SDS011;10921;53.614;9.882;2022-09-12T11:01:32;9.35;;;8.75;;
21519;SDS011;10921;53.614;9.882;2022-09-12T11:18:28;8.68;;;8.07;;
21519;SDS011;10921;53.614;9.882;2022-09-12T11:26:14;8.98;;;8.38;;
21519;SDS011;10921;53.614;9.882;2022-09-12T11:31:37;8.57;;;7.97;;
21519;SDS011;10921;53.614;9.882;2022-09-12T11:34:09;9.45;;;8.75;;
21519;SDS011;10921;53.614;9.882;2022-09-12T11:36:43;9.50;;;8.88;;
21519;SDS011;10921;53.614;9.882;2022-09-12T11:39:22;9.68;;;8.98;;
21519;SDS011;10921;53.614;9.882;2022-09-12T11:41:59;9.30;;;8.60;;
21519;SDS011;10921;53.614;9.882;2022-09-12T11:44:37;9.23;;;8.43;;
21519;SDS011;10921;53.614;9.882;2022-09-12T11:47:11;9.55;;;8.80;;
21519;SDS011;10921;53.614;9.882;2022-09-12T11:49:39;9.70;;;9.00;;
21519;SDS011;10921;53.614;9.882;2022-09-12T11:52:13;9.57;;;8.65;;
21519;SDS011;10921;53.614;9.882;2022-09-12T11:54:43;9.02;;;8.43;;
21519;SDS011;10921;53.614;9.882;2022-09-12T11:57:22;9.40;;;8.80;;
21519;SDS011;10921;53.614;9.882;2022-09-12T12:00:06;8.90;;;8.40;;
21519;SDS011;10921;53.614;9.882;2022-09-12T12:05:25;9.63;;;8.93;;
21519;SDS011;10921;53.614;9.882;2022-09-12T12:07:57;9.48;;;8.77;;
21519;SDS011;10921;53.614;9.882;2022-09-12T12:10:28;9.50;;;8.80;;
21519;SDS011;10921;53.614;9.882;2022-09-12T12:12:59;9.55;;;8.85;;
21519;SDS011;10921;53.614;9.882;2022-09-12T12:15:38;10.18;;;9.38;;
21519;SDS011;10921;53.614;9.882;2022-09-12T12:18:15;9.98;;;9.13;;
21519;SDS011;10921;53.614;9.882;2022-09-12T12:20:44;9.27;;;8.67;;
21519;SDS011;10921;53.614;9.882;2022-09-12T12:23:28;9.68;;;9.00;;
21519;SDS011;10921;53.614;9.882;2022-09-12T12:25:57;9.50;;;8.85;;
21519;SDS011;10921;53.614;9.882;2022-09-12T12:31:09;9.10;;;8.50;;
21519;SDS011;10921;53.614;9.882;2022-09-12T12:36:06;9.63;;;8.93;;
21519;SDS011;10921;53.614;9.882;2022-09-12T12:38:35;9.30;;;8.60;;
21519;SDS011;10921;53.614;9.882;2022-09-12T12:43:46;12.50;;;9.18;;
21519;SDS011;10921;53.614;9.882;2022-09-12T12:46:24;9.60;;;8.88;;
21519;SDS011;10921;53.614;9.882;2022-09-12T12:49:03;9.48;;;8.88;;
21519;SDS011;10921;53.614;9.882;2022-09-12T12:57:05;9.82;;;9.10;;
21519;SDS011;10921;53.614;9.882;2022-09-12T12:59:52;9.75;;;8.85;;
21519;SDS011;10921;53.614;9.882;2022-09-12T13:02:21;9.73;;;9.10;;
21519;SDS011;10921;53.614;9.882;2022-09-12T13:05:02;9.38;;;8.70;;
21519;SDS011;10921;53.614;9.882;2022-09-12T13:07:32;10.48;;;9.57;;
21519;SDS011;10921;53.614;9.882;2022-09-12T13:10:03;34.08;;;29.45;;
21519;SDS011;10921;53.614;9.882;2022-09-12T13:12:36;18.27;;;16.52;;
21519;SDS011;10921;53.614;9.882;2022-09-12T13:18:06;13.95;;;12.70;;
21519;SDS011;10921;53.614;9.882;2022-09-12T13:20:47;13.32;;;12.25;;
21519;SDS011;10921;53.614;9.882;2022-09-12T13:23:26;10.68;;;9.88;;
21519;SDS011;10921;53.614;9.882;2022-09-12T13:25:59;10.18;;;9.48;;
21519;SDS011;10921;53.614;9.882;2022-09-12T13:28:27;10.02;;;9.27;;
21519;SDS011;10921;53.614;9.882;2022-09-12T13:44:29;10.88;;;9.95;;
21519;SDS011;10921;53.614;9.882;2022-09-12T13:47:00;11.40;;;10.45;;
21519;SDS011;10921;53.614;9.882;2022-09-12T13:49:30;10.48;;;9.45;;
21519;SDS011;10921;53.614;9.882;2022-09-12T13:52:23;10.23;;;9.43;;
21519;SDS011;10921;53.614;9.882;2022-09-12T13:54:51;10.65;;;9.63;;
21519;SDS011;10921;53.614;9.882;2022-09-12T14:00:10;10.65;;;9.75;;
21519;SDS011;10921;53.614;9.882;2022-09-12T14:02:44;10.27;;;9.45;;
21519;SDS011;10921;53.614;9.882;2022-09-12T14:05:16;10.38;;;9.65;;
21519;SDS011;10921;53.614;9.882;2022-09-12T14:07:51;11.82;;;10.80;;
21519;SDS011;10921;53.614;9.882;2022-09-12T14:10:21;11.60;;;10.68;;
21519;SDS011;10921;53.614;9.882;2022-09-12T14:12:53;12.55;;;11.48;;
21519;SDS011;10921;53.614;9.882;2022-09-12T14:15:23;12.10;;;10.90;;
21519;SDS011;10921;53.614;9.882;2022-09-12T14:17:53;11.45;;;10.55;;
21519;SDS011;10921;53.614;9.882;2022-09-12T14:20:30;11.70;;;10.70;;
21519;SDS011;10921;53.614;9.882;2022-09-12T14:23:02;10.77;;;9.90;;
21519;SDS011;10921;53.614;9.882;2022-09-12T14:25:35;11.68;;;10.82;;
21519;SDS011;10921;53.614;9.882;2022-09-12T14:28:09;11.05;;;9.63;;
21519;SDS011;10921;53.614;9.882;2022-09-12T14:30:38;11.88;;;10.80;;
21519;SDS011;10921;53.614;9.882;2022-09-12T14:35:36;9.82;;;9.02;;
21519;SDS011;10921;53.614;9.882;2022-09-12T14:40:48;10.05;;;9.00;;
21519;SDS011;10921;53.614;9.882;2022-09-12T14:46:01;12.90;;;10.98;;
21519;SDS011;10921;53.614;9.882;2022-09-12T14:48:32;11.10;;;10.30;;
21519;SDS011;10921;53.614;9.882;2022-09-12T14:51:02;9.18;;;8.48;;
21519;SDS011;10921;53.614;9.882;2022-09-12T14:53:34;9.25;;;8.45;;
21519;SDS011;10921;53.614;9.882;2022-09-12T14:56:04;11.73;;;10.82;;
21519;SDS011;10921;53.614;9.882;2022-09-12T14:58:34;11.50;;;10.60;;
21519;SDS011;10921;53.614;9.882;2022-09-12T15:01:01;9.75;;;8.80;;
21519;SDS011;10921;53.614;9.882;2022-09-12T15:03:49;9.65;;;8.82;;
21519;SDS011;10921;53.614;9.882;2022-09-12T15:08:48;9.57;;;8.88;;
21519;SDS011;10921;53.614;9.882;2022-09-12T15:11:14;10.48;;;9.68;;
21519;SDS011;10921;53.614;9.882;2022-09-12T15:13:41;11.30;;;10.18;;
21519;SDS011;10921;53.614;9.882;2022-09-12T15:16:09;10.90;;;9.73;;
21519;SDS011;10921;53.614;9.882;2022-09-12T15:18:37;11.50;;;10.40;;
21519;SDS011;10921;53.614;9.882;2022-09-12T15:21:05;11.07;;;10.20;;
21519;SDS011;10921;53.614;9.882;2022-09-12T15:23:51;10.88;;;10.00;;
21519;SDS011;10921;53.614;9.882;2022-09-12T15:26:22;10.68;;;9.88;;
21519;SDS011;10921;53.614;9.882;2022-09-12T15:28:55;10.20;;;9.43;;
21519;SDS011;10921;53.614;9.882;2022-09-12T15:31:26;17.08;;;15.05;;
21519;SDS011;10921;53.614;9.882;2022-09-12T15:33:55;11.95;;;10.88;;
21519;SDS011;10921;53.614;9.882;2022-09-12T15:36:22;11.63;;;10.63;;
21519;SDS011;10921;53.614;9.882;2022-09-12T15:38:50;12.43;;;9.90;;
21519;SDS011;10921;53.614;9.882;2022-09-12T15:41:18;11.60;;;10.40;;
21519;SDS011;10921;53.614;9.882;2022-09-12T15:43:48;10.45;;;9.73;;
21519;SDS011;10921;53.614;9.882;2022-09-12T15:46:15;10.70;;;9.90;;
21519;SDS011;10921;53.614;9.882;2022-09-12T15:48:43;11.55;;;10.30;;
21519;SDS011;10921;53.614;9.882;2022-09-12T15:51:13;10.85;;;9.95;;
21519;SDS011;10921;53.614;9.882;2022-09-12T15:53:41;12.40;;;11.00;;
21519;SDS011;10921;53.614;9.882;2022-09-12T15:56:08;12.05;;;10.70;;
21519;SDS011;10921;53.614;9.882;2022-09-12T15:58:34;10.80;;;9.90;;
21519;SDS011;10921;53.614;9.882;2022-09-12T16:01:01;10.82;;;9.85;;
21519;SDS011;10921;53.614;9.882;2022-09-12T16:03:28;10.38;;;9.68;;
21519;SDS011;10921;53.614;9.882;2022-09-12T16:05:56;11.63;;;10.68;;
21519;SDS011;10921;53.614;9.882;2022-09-12T16:08:24;11.15;;;10.15;;
21519;SDS011;10921;53.614;9.882;2022-09-12T16:13:44;10.40;;;9.60;;
21519;SDS011;10921;53.614;9.882;2022-09-12T16:16:11;10.68;;;9.70;;
21519;SDS011;10921;53.614;9.882;2022-09-12T16:18:38;10.00;;;9.20;;
21519;SDS011;10921;53.614;9.882;2022-09-12T16:21:05;10.43;;;9.55;;
21519;SDS011;10921;53.614;9.882;2022-09-12T16:23:36;10.23;;;9.43;;
21519;SDS011;10921;53.614;9.882;2022-09-12T16:26:04;11.30;;;10.20;;
21519;SDS011;10921;53.614;9.882;2022-09-12T16:28:31;10.60;;;9.70;;
21519;SDS011;10921;53.614;9.882;2022-09-12T16:30:59;11.27;;;10.38;;
21519;SDS011;10921;53.614;9.882;2022-09-12T16:33:27;11.10;;;9.82;;
21519;SDS011;10921;53.614;9.882;2022-09-12T16:36:28;10.20;;;9.30;;
21519;SDS011;10921;53.614;9.882;2022-09-12T16:38:51;9.82;;;9.10;;
21519;SDS011;10921;53.614;9.882;2022-09-12T16:41:20;10.25;;;9.50;;
21519;SDS011;10921;53.614;9.882;2022-09-12T16:43:49;10.10;;;9.40;;
21519;SDS011;10921;53.614;9.882;2022-09-12T16:46:21;10.52;;;9.73;;
21519;SDS011;10921;53.614;9.882;2022-09-12T16:48:52;11.00;;;10.05;;
21519;SDS011;10921;53.614;9.882;2022-09-12T16:51:22;11.07;;;10.18;;
21519;SDS011;10921;53.614;9.882;2022-09-12T16:53:53;10.15;;;9.45;;
21519;SDS011;10921;53.614;9.882;2022-09-12T16:56:20;10.27;;;9.57;;
21519;SDS011;10921;53.614;9.882;2022-09-12T16:58:47;11.05;;;10.05;;
21519;SDS011;10921;53.614;9.882;2022-09-12T17:01:15;10.63;;;9.52;;
21519;SDS011;10921;53.614;9.882;2022-09-12T17:03:46;10.98;;;9.73;;
21519;SDS011;10921;53.614;9.882;2022-09-12T17:06:14;11.02;;;10.02;;
21519;SDS011;10921;53.614;9.882;2022-09-12T17:08:44;10.38;;;9.57;;
21519;SDS011;10921;53.614;9.882;2022-09-12T17:11:14;10.45;;;9.65;;
21519;SDS011;10921;53.614;9.882;2022-09-12T17:13:46;10.60;;;9.80;;
21519;SDS011;10921;53.614;9.882;2022-09-12T17:16:32;12.02;;;10.82;;
21519;SDS011;10921;53.614;9.882;2022-09-12T17:19:03;11.82;;;10.77;;
21519;SDS011;10921;53.614;9.882;2022-09-12T17:21:31;11.38;;;10.38;;
21519;SDS011;10921;53.614;9.882;2022-09-12T17:23:58;11.52;;;10.52;;
21519;SDS011;10921;53.614;9.882;2022-09-12T17:26:24;11.02;;;10.23;;